Terminal Aerodrome Forecast
Issued by NWS

Home | Current Version | Previous Version | Text Only | Print | Product List | Glossary On
Versions: 1 2 3 4 5 6 7 8 9 10 11 12
229
FTUS42 KILM 301120
TAFCRE
TAF
KCRE 301120Z 3012/3112 24004KT P6SM FEW080 SCT120
     FM301300 24008KT P6SM SCT050
     FM301700 21012G18KT P6SM VCTS SCT040CB BKN060
     FM310200 22010KT P6SM SCT250=

USA.gov is the U.S. government's official web portal to all federal, state and local government web resources and services.